Svogerslev, Denmark
Current Conditions -  °F | °C
As of 4:50 PM on Sunday 23 Nov 2014 (Local Time) from EKRK Reporting Station
Broken Clouds Broken Clouds  
Wind Chill: 37°   Ceiling: 1400
Heat Index: 45°   Visibility: 3mi
Dew Point: 43°   Wind: 20mph
Humidity: 93%   Direction: 140°SE
Pressure: 30.12"   Gusts: NA
Location:  55.63°N, 12.01°E
Report Text: EKRK 231550Z AUTO 14017KT 5000NDV SCT011/// BKN014///07/06 Q1020
Loading
Personal Weather Stations






























Interactive Weather Map New forecast layout! Learn more

10-Day Weather Forecast

Advertisements
Track Severe Weather on mobile